Elkmont, Alabama
Current Conditions -  °F | °C
As of 12:53 AM on Saturday 20 Dec 2014 (Local Time) from KDCU Reporting Station
Overcast Overcast  
Wind Chill: 39°   Ceiling: 7000
Heat Index: 39°   Visibility: 9mi
Dew Point: 31°   Wind: 0mph
Humidity: 73%   Direction: NA
Pressure: 30.18"   Gusts: NA
Location:  34.93°N, 86.97°W
Report Text: KDCU 200653Z AUTO 00000KT 9SM OVC070 04/M01 A3018 RMK AO2 SLP222 T00391006
Loading
Personal Weather Stations






























Interactive Weather Map New forecast layout! Learn more

10-Day Weather Forecast

Advertisements
Track Severe Weather on mobile